sensor_id;sensor_type;location;lat;lon;timestamp;pressure;altitude;pressure_sealevel;temperature;humidity
78855;BME280;68206;59.956;30.234;2024-02-16T00:00:15;102713.53;;;3.69;46.01
78855;BME280;68206;59.956;30.234;2024-02-16T00:02:44;102712.69;;;3.68;46.00
78855;BME280;68206;59.956;30.234;2024-02-16T00:05:13;102716.22;;;3.70;46.29
78855;BME280;68206;59.956;30.234;2024-02-16T00:07:41;102719.78;;;3.72;46.37
78855;BME280;68206;59.956;30.234;2024-02-16T00:10:10;102710.19;;;3.73;46.30
78855;BME280;68206;59.956;30.234;2024-02-16T00:12:39;102716.38;;;3.75;46.18
78855;BME280;68206;59.956;30.234;2024-02-16T00:15:09;102713.75;;;3.75;46.05
78855;BME280;68206;59.956;30.234;2024-02-16T00:17:39;102711.16;;;3.76;46.17
78855;BME280;68206;59.956;30.234;2024-02-16T00:20:08;102709.44;;;3.77;46.59
78855;BME280;68206;59.956;30.234;2024-02-16T00:22:38;102714.72;;;3.78;46.02
78855;BME280;68206;59.956;30.234;2024-02-16T00:25:07;102704.19;;;3.77;45.95
78855;BME280;68206;59.956;30.234;2024-02-16T00:27:35;102706.00;;;3.79;46.01
78855;BME280;68206;59.956;30.234;2024-02-16T00:30:04;102702.50;;;3.79;46.00
78855;BME280;68206;59.956;30.234;2024-02-16T00:32:33;102707.81;;;3.82;45.99
78855;BME280;68206;59.956;30.234;2024-02-16T00:35:03;102700.84;;;3.82;45.86
78855;BME280;68206;59.956;30.234;2024-02-16T00:37:31;102705.25;;;3.83;46.36
78855;BME280;68206;59.956;30.234;2024-02-16T00:39:59;102704.47;;;3.86;46.01
78855;BME280;68206;59.956;30.234;2024-02-16T00:42:27;102700.94;;;3.85;45.79
78855;BME280;68206;59.956;30.234;2024-02-16T00:44:58;102700.06;;;3.85;46.48
78855;BME280;68206;59.956;30.234;2024-02-16T00:47:27;102696.59;;;3.87;46.08
78855;BME280;68206;59.956;30.234;2024-02-16T00:49:56;102700.13;;;3.88;46.05
78855;BME280;68206;59.956;30.234;2024-02-16T00:52:26;102699.28;;;3.89;45.97
78855;BME280;68206;59.956;30.234;2024-02-16T00:54:54;102689.69;;;3.89;46.28
78855;BME280;68206;59.956;30.234;2024-02-16T00:57:22;102693.25;;;3.91;46.37
78855;BME280;68206;59.956;30.234;2024-02-16T00:59:50;102702.91;;;3.92;46.08
78855;BME280;68206;59.956;30.234;2024-02-16T01:02:18;102694.13;;;3.92;46.21
78855;BME280;68206;59.956;30.234;2024-02-16T01:04:46;102694.13;;;3.92;46.06
78855;BME280;68206;59.956;30.234;2024-02-16T01:07:14;102693.31;;;3.93;46.45
78855;BME280;68206;59.956;30.234;2024-02-16T01:09:44;102692.53;;;3.97;45.99
78855;BME280;68206;59.956;30.234;2024-02-16T01:12:12;102687.28;;;3.97;46.20
78855;BME280;68206;59.956;30.234;2024-02-16T01:14:40;102686.38;;;3.96;45.93
78855;BME280;68206;59.956;30.234;2024-02-16T01:17:09;102687.34;;;3.98;46.00
78855;BME280;68206;59.956;30.234;2024-02-16T01:19:37;102682.97;;;3.99;46.03
78855;BME280;68206;59.956;30.234;2024-02-16T01:22:05;102676.84;;;4.00;46.01
78855;BME280;68206;59.956;30.234;2024-02-16T01:24:33;102679.47;;;4.00;46.04
78855;BME280;68206;59.956;30.234;2024-02-16T01:27:03;102681.31;;;4.02;46.05
78855;BME280;68206;59.956;30.234;2024-02-16T01:29:31;102676.91;;;4.01;46.19
78855;BME280;68206;59.956;30.234;2024-02-16T01:31:59;102677.84;;;4.03;45.99
78855;BME280;68206;59.956;30.234;2024-02-16T01:34:28;102685.78;;;4.05;46.19
78855;BME280;68206;59.956;30.234;2024-02-16T01:36:57;102674.38;;;4.04;46.09
78855;BME280;68206;59.956;30.234;2024-02-16T01:39:26;102681.44;;;4.07;45.92
78855;BME280;68206;59.956;30.234;2024-02-16T01:41:54;102680.59;;;4.08;46.30
78855;BME280;68206;59.956;30.234;2024-02-16T01:44:23;102685.84;;;4.08;46.16
78855;BME280;68206;59.956;30.234;2024-02-16T01:46:52;102674.50;;;4.09;46.12
78855;BME280;68206;59.956;30.234;2024-02-16T01:49:20;102681.53;;;4.10;46.20
78855;BME280;68206;59.956;30.234;2024-02-16T01:51:48;102675.44;;;4.11;46.21
78855;BME280;68206;59.956;30.234;2024-02-16T01:54:17;102671.97;;;4.12;46.38
78855;BME280;68206;59.956;30.234;2024-02-16T01:56:45;102676.34;;;4.13;46.46
78855;BME280;68206;59.956;30.234;2024-02-16T01:59:14;102665.84;;;4.13;46.44
78855;BME280;68206;59.956;30.234;2024-02-16T02:01:44;102671.16;;;4.15;46.22
78855;BME280;68206;59.956;30.234;2024-02-16T02:04:12;102685.22;;;4.17;46.14
78855;BME280;68206;59.956;30.234;2024-02-16T02:06:40;102670.38;;;4.17;46.50
78855;BME280;68206;59.956;30.234;2024-02-16T02:09:09;102672.09;;;4.17;46.38
78855;BME280;68206;59.956;30.234;2024-02-16T02:11:37;102673.91;;;4.19;46.63
78855;BME280;68206;59.956;30.234;2024-02-16T02:14:05;102680.88;;;4.19;46.31
78855;BME280;68206;59.956;30.234;2024-02-16T02:16:34;102673.88;;;4.18;46.58
78855;BME280;68206;59.956;30.234;2024-02-16T02:19:18;102676.63;;;4.22;46.28
78855;BME280;68206;59.956;30.234;2024-02-16T02:21:46;102675.78;;;4.23;46.04
78855;BME280;68206;59.956;30.234;2024-02-16T02:24:16;102680.19;;;4.24;46.17
78855;BME280;68206;59.956;30.234;2024-02-16T02:26:45;102670.53;;;4.23;46.48
78855;BME280;68206;59.956;30.234;2024-02-16T02:29:13;102677.59;;;4.26;46.36
78855;BME280;68206;59.956;30.234;2024-02-16T02:31:42;102668.81;;;4.25;46.70
78855;BME280;68206;59.956;30.234;2024-02-16T02:34:11;102683.78;;;4.28;46.60
78855;BME280;68206;59.956;30.234;2024-02-16T02:36:40;102672.38;;;4.27;46.68
78855;BME280;68206;59.956;30.234;2024-02-16T02:39:08;102674.16;;;4.28;46.59
78855;BME280;68206;59.956;30.234;2024-02-16T02:41:38;102674.22;;;4.30;46.39
78855;BME280;68206;59.956;30.234;2024-02-16T02:44:06;102676.00;;;4.31;46.52
78855;BME280;68206;59.956;30.234;2024-02-16T02:46:34;102687.41;;;4.33;46.71
78855;BME280;68206;59.956;30.234;2024-02-16T02:49:02;102690.94;;;4.33;46.60
78855;BME280;68206;59.956;30.234;2024-02-16T02:51:31;102691.00;;;4.35;46.58
78855;BME280;68206;59.956;30.234;2024-02-16T02:53:59;102691.00;;;4.35;46.44
78855;BME280;68206;59.956;30.234;2024-02-16T02:56:27;102687.50;;;4.36;46.47
78855;BME280;68206;59.956;30.234;2024-02-16T02:58:57;102689.31;;;4.37;46.40
78855;BME280;68206;59.956;30.234;2024-02-16T03:01:25;102691.88;;;4.35;46.82
78855;BME280;68206;59.956;30.234;2024-02-16T03:03:53;102691.09;;;4.39;46.75
78855;BME280;68206;59.956;30.234;2024-02-16T03:06:22;102701.66;;;4.41;46.72
78855;BME280;68206;59.956;30.234;2024-02-16T03:08:50;102702.56;;;4.41;46.43
78855;BME280;68206;59.956;30.234;2024-02-16T03:11:18;102699.97;;;4.43;46.60
78855;BME280;68206;59.956;30.234;2024-02-16T03:13:46;102702.63;;;4.44;46.69
78855;BME280;68206;59.956;30.234;2024-02-16T03:16:16;102700.88;;;4.45;46.97
78855;BME280;68206;59.956;30.234;2024-02-16T03:18:44;102703.56;;;4.46;46.90
78855;BME280;68206;59.956;30.234;2024-02-16T03:21:13;102700.09;;;4.47;46.79
78855;BME280;68206;59.956;30.234;2024-02-16T03:23:44;102691.31;;;4.47;46.79
78855;BME280;68206;59.956;30.234;2024-02-16T03:26:15;102697.53;;;4.51;46.92
78855;BME280;68206;59.956;30.234;2024-02-16T03:28:44;102698.41;;;4.51;46.94
78855;BME280;68206;59.956;30.234;2024-02-16T03:31:19;102691.47;;;4.53;47.04
78855;BME280;68206;59.956;30.234;2024-02-16T03:33:49;102694.16;;;4.55;46.79
78855;BME280;68206;59.956;30.234;2024-02-16T03:36:19;102695.94;;;4.56;46.79
78855;BME280;68206;59.956;30.234;2024-02-16T03:38:48;102686.28;;;4.56;47.20
78855;BME280;68206;59.956;30.234;2024-02-16T03:41:20;102685.44;;;4.57;46.86
78855;BME280;68206;59.956;30.234;2024-02-16T03:43:49;102680.19;;;4.56;47.13
78855;BME280;68206;59.956;30.234;2024-02-16T03:46:19;102684.66;;;4.60;47.12
78855;BME280;68206;59.956;30.234;2024-02-16T03:48:47;102676.81;;;4.61;47.17
78855;BME280;68206;59.956;30.234;2024-02-16T03:51:16;102684.72;;;4.63;47.53
78855;BME280;68206;59.956;30.234;2024-02-16T03:53:44;102684.75;;;4.64;47.21
78855;BME280;68206;59.956;30.234;2024-02-16T03:56:18;102684.75;;;4.64;47.22
78855;BME280;68206;59.956;30.234;2024-02-16T03:58:46;102690.13;;;4.67;47.14
78855;BME280;68206;59.956;30.234;2024-02-16T04:01:14;102693.63;;;4.68;47.21
78855;BME280;68206;59.956;30.234;2024-02-16T04:03:44;102689.28;;;4.68;47.24
78855;BME280;68206;59.956;30.234;2024-02-16T04:06:12;102701.56;;;4.71;47.36
78855;BME280;68206;59.956;30.234;2024-02-16T04:08:40;102698.94;;;4.71;47.23
78855;BME280;68206;59.956;30.234;2024-02-16T04:11:11;102688.50;;;4.72;47.25
78855;BME280;68206;59.956;30.234;2024-02-16T04:13:40;102695.53;;;4.73;47.40
78855;BME280;68206;59.956;30.234;2024-02-16T04:16:08;102692.91;;;4.75;47.33
78855;BME280;68206;59.956;30.234;2024-02-16T04:18:36;102688.56;;;4.75;47.36
78855;BME280;68206;59.956;30.234;2024-02-16T04:21:06;102692.06;;;4.76;47.42
78855;BME280;68206;59.956;30.234;2024-02-16T04:23:34;102688.59;;;4.77;47.59
78855;BME280;68206;59.956;30.234;2024-02-16T04:26:03;102688.59;;;4.77;47.75
78855;BME280;68206;59.956;30.234;2024-02-16T04:28:34;102694.78;;;4.79;47.90
78855;BME280;68206;59.956;30.234;2024-02-16T04:31:03;102690.44;;;4.79;47.37
78855;BME280;68206;59.956;30.234;2024-02-16T04:33:31;102693.97;;;4.81;47.33
78855;BME280;68206;59.956;30.234;2024-02-16T04:36:00;102688.69;;;4.81;47.51
78855;BME280;68206;59.956;30.234;2024-02-16T04:38:29;102694.84;;;4.82;47.60
78855;BME280;68206;59.956;30.234;2024-02-16T04:40:57;102695.75;;;4.82;47.35
78855;BME280;68206;59.956;30.234;2024-02-16T04:43:25;102688.81;;;4.84;47.64
78855;BME280;68206;59.956;30.234;2024-02-16T04:45:54;102691.47;;;4.86;47.41
78855;BME280;68206;59.956;30.234;2024-02-16T04:48:22;102684.50;;;4.88;47.64
78855;BME280;68206;59.956;30.234;2024-02-16T04:50:50;102690.63;;;4.88;47.78
78855;BME280;68206;59.956;30.234;2024-02-16T04:53:18;102682.75;;;4.88;47.66
78855;BME280;68206;59.956;30.234;2024-02-16T04:55:48;102686.28;;;4.89;47.58
78855;BME280;68206;59.956;30.234;2024-02-16T04:58:16;102688.06;;;4.90;47.66
78855;BME280;68206;59.956;30.234;2024-02-16T05:00:44;102684.53;;;4.90;47.76
78855;BME280;68206;59.956;30.234;2024-02-16T05:03:14;102690.72;;;4.92;47.66
78855;BME280;68206;59.956;30.234;2024-02-16T05:05:43;102687.25;;;4.93;47.69
78855;BME280;68206;59.956;30.234;2024-02-16T05:08:12;102677.63;;;4.93;47.60
78855;BME280;68206;59.956;30.234;2024-02-16T05:10:40;102677.63;;;4.93;47.72
78855;BME280;68206;59.956;30.234;2024-02-16T05:13:10;102675.03;;;4.95;47.59
78855;BME280;68206;59.956;30.234;2024-02-16T05:15:39;102679.44;;;4.96;47.39
78855;BME280;68206;59.956;30.234;2024-02-16T05:18:07;102681.22;;;4.97;47.72
78855;BME280;68206;59.956;30.234;2024-02-16T05:20:38;102681.25;;;4.98;47.51
78855;BME280;68206;59.956;30.234;2024-02-16T05:23:06;102683.88;;;4.98;47.67
78855;BME280;68206;59.956;30.234;2024-02-16T05:25:34;102673.22;;;4.94;47.67
78855;BME280;68206;59.956;30.234;2024-02-16T05:28:02;102697.94;;;5.00;47.55
78855;BME280;68206;59.956;30.234;2024-02-16T05:30:32;102707.63;;;5.01;47.57
78855;BME280;68206;59.956;30.234;2024-02-16T05:33:01;102707.63;;;5.01;47.35
78855;BME280;68206;59.956;30.234;2024-02-16T05:35:29;102709.41;;;5.02;47.45
78855;BME280;68206;59.956;30.234;2024-02-16T05:38:01;102700.66;;;5.03;47.48
78855;BME280;68206;59.956;30.234;2024-02-16T05:40:34;102712.06;;;5.04;47.50
78855;BME280;68206;59.956;30.234;2024-02-16T05:43:20;102705.91;;;5.03;47.17
78855;BME280;68206;59.956;30.234;2024-02-16T05:45:50;102713.84;;;5.05;47.53
78855;BME280;68206;59.956;30.234;2024-02-16T05:48:18;102699.88;;;5.06;47.71
78855;BME280;68206;59.956;30.234;2024-02-16T05:50:48;102709.50;;;5.07;47.60
78855;BME280;68206;59.956;30.234;2024-02-16T05:53:29;102705.13;;;5.07;47.55
78855;BME280;68206;59.956;30.234;2024-02-16T05:55:58;102709.56;;;5.08;47.59
78855;BME280;68206;59.956;30.234;2024-02-16T05:58:28;102716.59;;;5.09;47.35
78855;BME280;68206;59.956;30.234;2024-02-16T06:00:58;102715.75;;;5.10;47.16
78855;BME280;68206;59.956;30.234;2024-02-16T06:03:26;102708.75;;;5.11;47.57
78855;BME280;68206;59.956;30.234;2024-02-16T06:05:54;102712.28;;;5.13;47.58
78855;BME280;68206;59.956;30.234;2024-02-16T06:08:23;102714.03;;;5.12;47.26
78855;BME280;68206;59.956;30.234;2024-02-16T06:10:54;102711.44;;;5.14;47.21
78855;BME280;68206;59.956;30.234;2024-02-16T06:13:22;102694.72;;;5.10;47.50
78855;BME280;68206;59.956;30.234;2024-02-16T06:15:51;102710.59;;;5.15;47.47
78855;BME280;68206;59.956;30.234;2024-02-16T06:18:20;102708.00;;;5.16;47.27
78855;BME280;68206;59.956;30.234;2024-02-16T06:20:49;102717.69;;;5.17;47.21
78855;BME280;68206;59.956;30.234;2024-02-16T06:23:17;102705.44;;;5.19;46.96
78855;BME280;68206;59.956;30.234;2024-02-16T06:25:45;102707.16;;;5.19;46.84
78855;BME280;68206;59.956;30.234;2024-02-16T06:28:14;102701.09;;;5.21;47.20
78855;BME280;68206;59.956;30.234;2024-02-16T06:30:42;102703.78;;;5.23;46.92
78855;BME280;68206;59.956;30.234;2024-02-16T06:33:11;102716.97;;;5.24;46.70
78855;BME280;68206;59.956;30.234;2024-02-16T06:35:41;102717.03;;;5.27;46.64
78855;BME280;68206;59.956;30.234;2024-02-16T06:38:09;102710.09;;;5.30;46.94
78855;BME280;68206;59.956;30.234;2024-02-16T06:40:38;102701.34;;;5.31;46.81
78855;BME280;68206;59.956;30.234;2024-02-16T06:43:06;102703.19;;;5.35;46.45
78855;BME280;68206;59.956;30.234;2024-02-16T06:45:35;102695.34;;;5.36;46.64
78855;BME280;68206;59.956;30.234;2024-02-16T06:48:04;102708.50;;;5.38;46.29
78855;BME280;68206;59.956;30.234;2024-02-16T06:50:33;102691.06;;;5.41;46.48
78855;BME280;68206;59.956;30.234;2024-02-16T06:53:03;102710.41;;;5.43;46.42
78855;BME280;68206;59.956;30.234;2024-02-16T06:55:31;102701.69;;;5.46;46.23
78855;BME280;68206;59.956;30.234;2024-02-16T06:57:59;102689.38;;;5.45;46.32
78855;BME280;68206;59.956;30.234;2024-02-16T07:00:27;102697.44;;;5.52;46.85
78855;BME280;68206;59.956;30.234;2024-02-16T07:02:56;102713.31;;;5.55;46.37
78855;BME280;68206;59.956;30.234;2024-02-16T07:05:25;102709.00;;;5.59;45.86
78855;BME280;68206;59.956;30.234;2024-02-16T07:07:54;102713.47;;;5.61;46.00
78855;BME280;68206;59.956;30.234;2024-02-16T07:10:24;102707.41;;;5.65;46.26
78855;BME280;68206;59.956;30.234;2024-02-16T07:12:52;102715.34;;;5.68;46.31
78855;BME280;68206;59.956;30.234;2024-02-16T07:15:20;102717.16;;;5.71;46.07
78855;BME280;68206;59.956;30.234;2024-02-16T07:17:48;102719.09;;;5.78;45.64
78855;BME280;68206;59.956;30.234;2024-02-16T07:20:17;102715.75;;;5.85;45.23
78855;BME280;68206;59.956;30.234;2024-02-16T07:22:45;102716.00;;;5.96;44.99
78855;BME280;68206;59.956;30.234;2024-02-16T07:25:14;102704.78;;;6.04;45.24
78855;BME280;68206;59.956;30.234;2024-02-16T07:27:43;102714.50;;;6.08;44.77
78855;BME280;68206;59.956;30.234;2024-02-16T07:30:12;102718.03;;;6.09;44.73
78855;BME280;68206;59.956;30.234;2024-02-16T07:32:49;102725.13;;;6.12;44.82
78855;BME280;68206;59.956;30.234;2024-02-16T07:35:19;102728.72;;;6.17;44.34
78855;BME280;68206;59.956;30.234;2024-02-16T07:37:52;102702.44;;;6.20;44.60
78855;BME280;68206;59.956;30.234;2024-02-16T07:40:21;102707.50;;;6.09;44.41
78855;BME280;68206;59.956;30.234;2024-02-16T07:42:51;102702.03;;;5.98;44.82
78855;BME280;68206;59.956;30.234;2024-02-16T07:45:20;102696.34;;;5.82;45.25
78855;BME280;68206;59.956;30.234;2024-02-16T07:47:48;102691.03;;;5.79;45.16
78855;BME280;68206;59.956;30.234;2024-02-16T07:50:18;102686.50;;;5.73;44.82
78855;BME280;68206;59.956;30.234;2024-02-16T07:52:48;102694.28;;;5.67;44.98
78855;BME280;68206;59.956;30.234;2024-02-16T07:55:17;102694.34;;;5.70;44.93
78855;BME280;68206;59.956;30.234;2024-02-16T07:57:47;102700.44;;;5.69;45.07
78855;BME280;68206;59.956;30.234;2024-02-16T08:00:17;102700.56;;;5.75;45.09
78855;BME280;68206;59.956;30.234;2024-02-16T08:02:46;102693.44;;;5.69;44.87
78855;BME280;68206;59.956;30.234;2024-02-16T08:05:15;102697.09;;;5.76;45.43
78855;BME280;68206;59.956;30.234;2024-02-16T08:07:46;102697.22;;;5.82;44.22
78855;BME280;68206;59.956;30.234;2024-02-16T08:10:18;102689.38;;;5.84;44.59
78855;BME280;68206;59.956;30.234;2024-02-16T08:12:48;102685.06;;;5.87;44.22
78855;BME280;68206;59.956;30.234;2024-02-16T08:15:19;102685.03;;;5.86;44.20
78855;BME280;68206;59.956;30.234;2024-02-16T08:17:51;102688.72;;;5.94;43.89
78855;BME280;68206;59.956;30.234;2024-02-16T08:20:20;102688.94;;;6.03;44.50
78855;BME280;68206;59.956;30.234;2024-02-16T08:22:48;102691.78;;;6.12;43.67
78855;BME280;68206;59.956;30.234;2024-02-16T08:25:17;102697.47;;;6.35;43.58
78855;BME280;68206;59.956;30.234;2024-02-16T08:27:46;102695.31;;;6.59;43.81
78855;BME280;68206;59.956;30.234;2024-02-16T08:30:14;102691.34;;;6.84;42.98
78855;BME280;68206;59.956;30.234;2024-02-16T08:32:44;102697.00;;;7.07;43.06
78855;BME280;68206;59.956;30.234;2024-02-16T08:35:13;102692.13;;;7.33;42.70
78855;BME280;68206;59.956;30.234;2024-02-16T08:37:44;102689.00;;;7.58;42.72
78855;BME280;68206;59.956;30.234;2024-02-16T08:40:13;102692.81;;;7.78;42.13
78855;BME280;68206;59.956;30.234;2024-02-16T08:42:42;102677.25;;;8.01;42.40
78855;BME280;68206;59.956;30.234;2024-02-16T08:45:10;102679.22;;;8.20;42.26
78855;BME280;68206;59.956;30.234;2024-02-16T08:47:40;102676.84;;;8.40;41.92
78855;BME280;68206;59.956;30.234;2024-02-16T08:50:10;102670.84;;;8.58;40.99
78855;BME280;68206;59.956;30.234;2024-02-16T08:52:43;102676.31;;;8.76;41.09
78855;BME280;68206;59.956;30.234;2024-02-16T08:55:13;102672.94;;;8.92;40.68
78855;BME280;68206;59.956;30.234;2024-02-16T08:57:41;102672.19;;;9.05;40.76
78855;BME280;68206;59.956;30.234;2024-02-16T09:00:11;102670.53;;;9.21;40.17
78855;BME280;68206;59.956;30.234;2024-02-16T09:02:39;102675.00;;;9.32;39.92
78855;BME280;68206;59.956;30.234;2024-02-16T09:05:10;102670.69;;;9.47;40.29
78855;BME280;68206;59.956;30.234;2024-02-16T09:07:38;102654.88;;;9.60;39.88
78855;BME280;68206;59.956;30.234;2024-02-16T09:10:07;102658.50;;;9.73;39.60
78855;BME280;68206;59.956;30.234;2024-02-16T09:12:35;102664.72;;;9.86;39.29
78855;BME280;68206;59.956;30.234;2024-02-16T09:15:05;102654.19;;;9.98;38.97
78855;BME280;68206;59.956;30.234;2024-02-16T09:17:35;102656.84;;;10.08;38.73
78855;BME280;68206;59.956;30.234;2024-02-16T09:20:04;102664.00;;;10.17;38.49
78855;BME280;68206;59.956;30.234;2024-02-16T09:22:36;102642.78;;;10.25;38.41
78855;BME280;68206;59.956;30.234;2024-02-16T09:25:13;102637.50;;;10.31;37.57
78855;BME280;68206;59.956;30.234;2024-02-16T09:27:41;102640.19;;;10.35;37.89
78855;BME280;68206;59.956;30.234;2024-02-16T09:30:13;102649.03;;;10.40;37.21
78855;BME280;68206;59.956;30.234;2024-02-16T09:32:41;102638.41;;;10.45;37.64
78855;BME280;68206;59.956;30.234;2024-02-16T09:35:10;102657.91;;;10.48;37.37
78855;BME280;68206;59.956;30.234;2024-02-16T09:37:40;102645.50;;;10.52;36.90
78855;BME280;68206;59.956;30.234;2024-02-16T09:40:11;102641.09;;;10.56;36.71
78855;BME280;68206;59.956;30.234;2024-02-16T09:42:41;102645.50;;;10.58;36.43
78855;BME280;68206;59.956;30.234;2024-02-16T09:45:11;102641.97;;;10.59;36.52
78855;BME280;68206;59.956;30.234;2024-02-16T09:47:40;102647.31;;;10.61;36.31
78855;BME280;68206;59.956;30.234;2024-02-16T09:50:24;102649.06;;;10.60;36.57
78855;BME280;68206;59.956;30.234;2024-02-16T09:52:56;102653.50;;;10.61;35.78
78855;BME280;68206;59.956;30.234;2024-02-16T09:55:24;102641.97;;;10.62;36.05
78855;BME280;68206;59.956;30.234;2024-02-16T09:58:00;102656.13;;;10.63;35.09
78855;BME280;68206;59.956;30.234;2024-02-16T10:00:28;102644.63;;;10.62;35.82
78855;BME280;68206;59.956;30.234;2024-02-16T10:02:56;102645.50;;;10.63;35.63
78855;BME280;68206;59.956;30.234;2024-02-16T10:05:25;102653.50;;;10.61;35.60
78855;BME280;68206;59.956;30.234;2024-02-16T10:07:55;102642.88;;;10.61;34.98
78855;BME280;68206;59.956;30.234;2024-02-16T10:10:25;102646.41;;;10.59;34.78
78855;BME280;68206;59.956;30.234;2024-02-16T10:13:01;102643.72;;;10.57;34.67
78855;BME280;68206;59.956;30.234;2024-02-16T10:15:31;102634.91;;;10.54;34.81
78855;BME280;68206;59.956;30.234;2024-02-16T10:18:00;102639.31;;;10.50;35.26
78855;BME280;68206;59.956;30.234;2024-02-16T10:20:30;102641.09;;;10.48;34.82
78855;BME280;68206;59.956;30.234;2024-02-16T10:23:04;102630.47;;;10.45;34.55
78855;BME280;68206;59.956;30.234;2024-02-16T10:25:34;102610.13;;;10.41;34.44
78855;BME280;68206;59.956;30.234;2024-02-16T10:28:05;102633.09;;;10.37;34.56
78855;BME280;68206;59.956;30.234;2024-02-16T10:30:39;102632.19;;;10.32;34.81
78855;BME280;68206;59.956;30.234;2024-02-16T10:33:10;102614.53;;;10.28;34.39
78855;BME280;68206;59.956;30.234;2024-02-16T10:35:41;102615.41;;;10.24;34.26
78855;BME280;68206;59.956;30.234;2024-02-16T10:38:11;102613.63;;;10.20;34.46
78855;BME280;68206;59.956;30.234;2024-02-16T10:40:42;102600.31;;;10.16;34.68
78855;BME280;68206;59.956;30.234;2024-02-16T10:43:13;102610.94;;;10.11;34.41
78855;BME280;68206;59.956;30.234;2024-02-16T10:45:41;102587.03;;;10.06;34.95
78855;BME280;68206;59.956;30.234;2024-02-16T10:48:10;102588.78;;;10.01;34.90
78855;BME280;68206;59.956;30.234;2024-02-16T10:50:39;102600.28;;;9.97;34.50
78855;BME280;68206;59.956;30.234;2024-02-16T10:53:12;102579.06;;;9.94;34.75
78855;BME280;68206;59.956;30.234;2024-02-16T10:55:42;102586.09;;;9.89;34.98
78855;BME280;68206;59.956;30.234;2024-02-16T10:58:11;102579.03;;;9.85;34.53
78855;BME280;68206;59.956;30.234;2024-02-16T11:00:50;102571.94;;;9.81;34.14
78855;BME280;68206;59.956;30.234;2024-02-16T11:03:21;102571.94;;;9.77;34.15
78855;BME280;68206;59.956;30.234;2024-02-16T11:05:53;102560.47;;;9.73;34.69
78855;BME280;68206;59.956;30.234;2024-02-16T11:08:25;102569.25;;;9.69;34.41
78855;BME280;68206;59.956;30.234;2024-02-16T11:11:00;102550.72;;;9.66;34.28
78855;BME280;68206;59.956;30.234;2024-02-16T11:13:33;102540.97;;;9.59;34.46
78855;BME280;68206;59.956;30.234;2024-02-16T11:16:02;102529.47;;;9.57;34.06
78855;BME280;68206;59.956;30.234;2024-02-16T11:18:32;102532.13;;;9.54;34.37
78855;BME280;68206;59.956;30.234;2024-02-16T11:21:05;102542.72;;;9.49;34.20
78855;BME280;68206;59.956;30.234;2024-02-16T11:23:36;102539.16;;;9.47;33.88
78855;BME280;68206;59.956;30.234;2024-02-16T11:26:05;102527.66;;;9.45;34.28
78855;BME280;68206;59.956;30.234;2024-02-16T11:28:40;102545.31;;;9.42;34.01
78855;BME280;68206;59.956;30.234;2024-02-16T11:31:09;102539.13;;;9.40;33.95
78855;BME280;68206;59.956;30.234;2024-02-16T11:33:43;102533.81;;;9.35;34.14
78855;BME280;68206;59.956;30.234;2024-02-16T11:36:16;102525.88;;;9.35;33.77
78855;BME280;68206;59.956;30.234;2024-02-16T11:38:48;102535.53;;;9.31;33.93
78855;BME280;68206;59.956;30.234;2024-02-16T11:41:17;102509.97;;;9.30;34.08
78855;BME280;68206;59.956;30.234;2024-02-16T11:43:49;102515.25;;;9.27;33.97
78855;BME280;68206;59.956;30.234;2024-02-16T11:46:17;102496.69;;;9.26;34.50
78855;BME280;68206;59.956;30.234;2024-02-16T11:48:45;102481.69;;;9.23;34.25
78855;BME280;68206;59.956;30.234;2024-02-16T11:51:15;102502.88;;;9.23;33.99
78855;BME280;68206;59.956;30.234;2024-02-16T11:53:45;102496.69;;;9.21;33.89
78855;BME280;68206;59.956;30.234;2024-02-16T11:56:22;102497.56;;;9.20;34.16
78855;BME280;68206;59.956;30.234;2024-02-16T11:58:52;102486.94;;;9.14;34.14
78855;BME280;68206;59.956;30.234;2024-02-16T12:01:21;102497.53;;;9.19;33.85
78855;BME280;68206;59.956;30.234;2024-02-16T12:03:49;102500.22;;;9.17;34.20
78855;BME280;68206;59.956;30.234;2024-02-16T12:06:20;102474.59;;;9.16;34.37
78855;BME280;68206;59.956;30.234;2024-02-16T12:08:50;102477.25;;;9.15;34.26
78855;BME280;68206;59.956;30.234;2024-02-16T12:11:23;102483.38;;;9.12;34.15
78855;BME280;68206;59.956;30.234;2024-02-16T12:13:52;102471.03;;;9.08;33.99
78855;BME280;68206;59.956;30.234;2024-02-16T12:16:20;102471.91;;;9.07;33.82
78855;BME280;68206;59.956;30.234;2024-02-16T12:18:49;102464.84;;;9.05;34.00
78855;BME280;68206;59.956;30.234;2024-02-16T12:21:18;102462.19;;;9.03;34.13
78855;BME280;68206;59.956;30.234;2024-02-16T12:23:48;102456.88;;;9.00;33.97
78855;BME280;68206;59.956;30.234;2024-02-16T12:26:17;102455.13;;;8.98;34.42
78855;BME280;68206;59.956;30.234;2024-02-16T12:28:47;102457.72;;;8.95;34.17
78855;BME280;68206;59.956;30.234;2024-02-16T12:31:20;102447.16;;;8.95;33.91
78855;BME280;68206;59.956;30.234;2024-02-16T12:33:48;102446.28;;;8.93;34.29
78855;BME280;68206;59.956;30.234;2024-02-16T12:36:17;102449.78;;;8.90;34.24
78855;BME280;68206;59.956;30.234;2024-02-16T12:38:45;102444.47;;;8.90;34.01
78855;BME280;68206;59.956;30.234;2024-02-16T12:41:13;102443.59;;;8.86;34.01
78855;BME280;68206;59.956;30.234;2024-02-16T12:43:41;102418.88;;;8.83;33.92
78855;BME280;68206;59.956;30.234;2024-02-16T12:46:10;102431.22;;;8.79;34.26
78855;BME280;68206;59.956;30.234;2024-02-16T12:48:39;102435.59;;;8.76;34.11
78855;BME280;68206;59.956;30.234;2024-02-16T12:51:12;102426.78;;;8.74;34.31
78855;BME280;68206;59.956;30.234;2024-02-16T12:53:41;102413.53;;;8.71;34.32
78855;BME280;68206;59.956;30.234;2024-02-16T12:56:09;102421.47;;;8.68;33.90
78855;BME280;68206;59.956;30.234;2024-02-16T12:58:38;102414.38;;;8.65;34.47